createdAt,value
2022-12-16T00:00:11.525Z,-14.67
2022-12-16T00:02:58.658Z,-14.72
2022-12-16T00:05:45.502Z,-14.58
2022-12-16T00:08:32.621Z,-14.54
2022-12-16T00:11:20.954Z,-14.67
2022-12-16T00:14:08.460Z,-14.47
2022-12-16T00:16:55.373Z,-14.44
2022-12-16T00:19:42.223Z,-14.40
2022-12-16T00:22:29.240Z,-14.50
2022-12-16T00:26:02.467Z,-14.31
2022-12-16T00:28:49.406Z,-14.27
2022-12-16T00:31:38.729Z,-14.21
2022-12-16T00:34:25.903Z,-14.17
2022-12-16T00:37:12.788Z,-14.16
2022-12-16T00:39:59.713Z,-14.14
2022-12-16T00:42:46.604Z,-14.00
2022-12-16T00:45:33.790Z,-13.95
2022-12-16T00:48:20.807Z,-13.89
2022-12-16T00:51:10.532Z,-13.82
2022-12-16T00:53:57.531Z,-14.71
2022-12-16T00:56:44.473Z,-13.71
2022-12-16T00:59:31.299Z,-13.66
2022-12-16T01:02:18.506Z,-13.62
2022-12-16T01:05:05.751Z,-13.64
2022-12-16T01:07:52.675Z,-13.53
2022-12-16T01:10:40.996Z,-13.65
2022-12-16T01:13:27.934Z,-13.59
2022-12-16T01:15:55.243Z,-13.41
2022-12-16T01:18:22.152Z,-13.36
2022-12-16T01:20:49.056Z,-13.34
2022-12-16T01:23:36.331Z,-13.31
2022-12-16T01:26:03.938Z,-13.29
2022-12-16T01:28:30.979Z,-13.26
2022-12-16T01:31:01.733Z,-13.22
2022-12-16T01:33:32.896Z,-13.20
2022-12-16T01:36:02.387Z,-13.23
2022-12-16T01:38:29.937Z,-13.16
2022-12-16T01:40:57.041Z,-13.24
2022-12-16T01:43:30.970Z,-13.13
2022-12-16T01:46:24.152Z,-13.11
2022-12-16T01:48:54.259Z,-13.09
2022-12-16T01:51:28.766Z,-13.12
2022-12-16T01:54:01.550Z,-13.06
2022-12-16T01:56:32.489Z,-13.21
2022-12-16T01:59:00.726Z,-13.08
2022-12-16T02:01:28.105Z,-12.99
2022-12-16T02:03:58.887Z,-13.14
2022-12-16T02:06:25.786Z,-12.93
2022-12-16T02:08:56.060Z,-12.95
2022-12-16T02:12:01.455Z,-14.04
2022-12-16T02:14:54.110Z,-13.38
2022-12-16T02:17:37.442Z,-12.81
2022-12-16T02:20:10.253Z,-12.79
2022-12-16T02:23:37.059Z,-12.76
2022-12-16T02:26:54.646Z,-12.73
2022-12-16T02:29:44.432Z,-12.69
2022-12-16T02:33:05.907Z,-12.68
2022-12-16T02:36:22.023Z,-12.66
2022-12-16T02:39:37.221Z,-12.63
2022-12-16T02:42:33.641Z,-12.60
2022-12-16T02:45:26.016Z,-12.59
2022-12-16T02:48:13.339Z,-12.54
2022-12-16T02:51:05.622Z,-12.53
2022-12-16T02:53:57.081Z,-12.56
2022-12-16T02:57:04.927Z,-12.49
2022-12-16T03:00:22.278Z,-12.49
2022-12-16T03:03:40.102Z,-12.47
2022-12-16T03:06:28.999Z,-12.47
2022-12-16T03:09:20.131Z,-12.46
2022-12-16T03:12:08.502Z,-12.50
2022-12-16T03:14:58.809Z,-12.47
2022-12-16T03:17:47.859Z,-12.46
2022-12-16T03:20:43.499Z,-12.47
2022-12-16T03:23:35.995Z,-12.47
2022-12-16T03:26:28.499Z,-12.48
2022-12-16T03:29:41.307Z,-12.48
2022-12-16T03:32:38.229Z,-12.49
2022-12-16T03:35:50.846Z,-12.49
2022-12-16T03:38:40.255Z,-12.49
2022-12-16T03:41:28.561Z,-12.77
2022-12-16T03:44:16.340Z,-12.47
2022-12-16T03:47:03.365Z,-12.46
2022-12-16T03:49:50.303Z,-12.44
2022-12-16T03:52:37.352Z,-12.43
2022-12-16T03:55:12.562Z,-12.42
2022-12-16T03:57:39.726Z,-12.40
2022-12-16T04:00:07.474Z,-12.42
2022-12-16T04:02:38.808Z,-12.52
2022-12-16T04:05:07.072Z,-12.36
2022-12-16T04:07:34.019Z,-12.35
2022-12-16T04:10:00.927Z,-13.13
2022-12-16T04:12:46.478Z,-12.36
2022-12-16T04:15:33.278Z,-12.30
2022-12-16T04:18:19.540Z,-12.30
2022-12-16T04:21:11.757Z,-12.29
2022-12-16T04:24:06.199Z,-12.36
2022-12-16T04:26:53.212Z,-12.50
2022-12-16T04:29:20.446Z,-12.27
2022-12-16T04:31:47.475Z,-12.28
2022-12-16T04:34:27.012Z,-12.26
2022-12-16T04:37:19.887Z,-12.24
2022-12-16T04:40:06.279Z,-12.73
2022-12-16T04:42:52.317Z,-12.22
2022-12-16T04:45:38.209Z,-13.28
2022-12-16T04:48:23.882Z,-12.23
2022-12-16T04:51:09.400Z,-12.23
2022-12-16T04:53:54.985Z,-12.24
2022-12-16T04:56:40.282Z,-12.24
2022-12-16T04:59:25.886Z,-12.29
2022-12-16T05:02:12.207Z,-12.25
2022-12-16T05:04:58.026Z,-12.24
2022-12-16T05:07:43.778Z,-12.23
2022-12-16T05:10:29.257Z,-12.25
2022-12-16T05:13:15.013Z,-12.23
2022-12-16T05:16:00.784Z,-12.35
2022-12-16T05:18:46.704Z,-12.27
2022-12-16T05:21:32.205Z,-12.26
2022-12-16T05:24:17.919Z,-12.26
2022-12-16T05:27:03.479Z,-12.26
2022-12-16T05:29:49.308Z,-12.28
2022-12-16T05:32:34.784Z,-12.29
2022-12-16T05:35:20.350Z,-12.36
2022-12-16T05:38:06.013Z,-12.33
2022-12-16T05:40:51.658Z,-12.33
2022-12-16T05:43:37.266Z,-12.36
2022-12-16T05:46:23.039Z,-12.37
2022-12-16T05:49:08.557Z,-12.40
2022-12-16T05:51:54.439Z,-12.57
2022-12-16T05:54:39.739Z,-12.45
2022-12-16T05:57:25.690Z,-13.29
2022-12-16T06:00:12.931Z,-12.50
2022-12-16T06:02:58.628Z,-12.65
2022-12-16T06:05:44.138Z,-12.55
2022-12-16T06:08:30.199Z,-12.88
2022-12-16T06:11:15.772Z,-12.61
2022-12-16T06:14:01.639Z,-12.65
2022-12-16T06:16:46.897Z,-12.68
2022-12-16T06:19:32.828Z,-12.70
2022-12-16T06:22:18.241Z,-13.65
2022-12-16T06:25:03.856Z,-12.77
2022-12-16T06:27:49.410Z,-13.05
2022-12-16T06:30:35.372Z,-12.98
2022-12-16T06:33:20.643Z,-12.86
2022-12-16T06:36:06.509Z,-12.89
2022-12-16T06:38:52.270Z,-12.97
2022-12-16T06:41:38.181Z,-12.96
2022-12-16T06:44:23.724Z,-13.06
2022-12-16T06:47:09.128Z,-13.00
2022-12-16T06:49:54.620Z,-13.00
2022-12-16T06:52:40.115Z,-13.12
2022-12-16T06:55:25.901Z,-13.06
2022-12-16T06:58:17.810Z,-13.06
2022-12-16T07:01:03.817Z,-13.43
2022-12-16T07:03:49.503Z,-13.06
2022-12-16T07:06:35.428Z,-13.06
2022-12-16T07:09:21.558Z,-13.06
2022-12-16T07:12:07.121Z,-13.05
2022-12-16T07:14:53.202Z,-13.07
2022-12-16T07:17:38.971Z,-13.33
2022-12-16T07:20:25.418Z,-13.42
2022-12-16T07:23:19.095Z,-13.10
2022-12-16T07:26:05.563Z,-13.11
2022-12-16T07:28:51.167Z,-13.11
2022-12-16T07:31:37.167Z,-13.28
2022-12-16T07:34:22.652Z,-13.16
2022-12-16T07:37:08.436Z,-13.22
2022-12-16T07:39:55.311Z,-13.55
2022-12-16T07:42:42.534Z,-13.28
2022-12-16T07:45:29.260Z,-13.26
2022-12-16T07:48:15.222Z,-13.26
2022-12-16T07:51:00.917Z,-13.28
2022-12-16T07:53:47.010Z,-13.30
2022-12-16T07:56:32.995Z,-13.35
2022-12-16T07:59:18.575Z,-13.34
2022-12-16T08:02:04.187Z,-13.36
2022-12-16T08:04:49.797Z,-13.38
2022-12-16T08:07:35.517Z,-13.40
2022-12-16T08:10:20.832Z,-13.41
2022-12-16T08:13:06.376Z,-13.43
2022-12-16T08:15:51.909Z,-13.45
2022-12-16T08:18:38.513Z,-13.46
2022-12-16T08:21:24.369Z,-13.68
2022-12-16T08:24:10.061Z,-13.58
2022-12-16T08:26:55.717Z,-13.49
2022-12-16T08:29:45.366Z,-13.52
2022-12-16T08:32:32.383Z,-13.51
2022-12-16T08:35:19.574Z,-13.62
2022-12-16T08:38:12.069Z,-13.54
2022-12-16T08:41:01.481Z,-13.54
2022-12-16T08:43:50.544Z,-13.55
2022-12-16T08:46:38.620Z,-14.28
2022-12-16T08:49:24.767Z,-14.05
2022-12-16T08:52:10.532Z,-13.65
2022-12-16T08:54:56.508Z,-13.57
2022-12-16T08:57:41.975Z,-13.59
2022-12-16T09:00:28.647Z,-13.72
2022-12-16T09:03:15.951Z,-13.58
2022-12-16T09:06:02.428Z,-14.18
2022-12-16T09:08:48.099Z,-13.58
2022-12-16T09:11:33.859Z,-13.65
2022-12-16T09:14:19.503Z,-13.58
2022-12-16T09:17:05.075Z,-13.58
2022-12-16T09:19:50.248Z,-13.63
2022-12-16T09:22:36.803Z,-13.58
2022-12-16T09:25:22.432Z,-13.58
2022-12-16T09:28:08.480Z,-13.58
2022-12-16T09:30:55.653Z,-13.62
2022-12-16T09:33:41.561Z,-13.58
2022-12-16T09:36:27.670Z,-13.76
2022-12-16T09:39:13.480Z,-13.59
2022-12-16T09:42:07.176Z,-13.87
2022-12-16T09:45:14.748Z,-13.62
2022-12-16T09:48:19.940Z,-13.94
2022-12-16T09:51:05.722Z,-13.63
2022-12-16T09:53:55.355Z,-14.44
2022-12-16T09:56:48.764Z,-13.66
2022-12-16T09:59:38.816Z,-13.72
2022-12-16T10:02:31.076Z,-13.74
2022-12-16T10:05:19.823Z,-13.74
2022-12-16T10:08:19.073Z,-13.74
2022-12-16T10:11:19.417Z,-13.72
2022-12-16T10:14:17.460Z,-13.71
2022-12-16T10:17:31.413Z,-13.69
2022-12-16T10:20:28.479Z,-13.68
2022-12-16T10:23:37.697Z,-13.67
2022-12-16T10:26:31.701Z,-13.66
2022-12-16T10:29:26.179Z,-13.65
2022-12-16T10:32:11.710Z,-14.08
2022-12-16T10:34:58.537Z,-13.64
2022-12-16T10:37:52.295Z,-13.64
2022-12-16T10:40:43.915Z,-13.63
2022-12-16T10:43:38.696Z,-13.63
2022-12-16T10:46:31.393Z,-13.78
2022-12-16T10:49:17.209Z,-13.69
2022-12-16T10:52:08.198Z,-14.05
2022-12-16T10:55:03.130Z,-13.74
2022-12-16T10:58:04.279Z,-13.62
2022-12-16T11:01:16.424Z,-13.62
2022-12-16T11:04:01.956Z,-13.61
2022-12-16T11:07:00.614Z,-13.60
2022-12-16T11:09:51.380Z,-13.60
2022-12-16T11:12:47.429Z,-13.60
2022-12-16T11:15:41.935Z,-13.59
2022-12-16T11:18:32.410Z,-13.59
2022-12-16T11:21:29.965Z,-13.60
2022-12-16T11:24:34.657Z,-13.58
2022-12-16T11:27:31.792Z,-13.65
2022-12-16T11:30:22.914Z,-14.01
2022-12-16T11:33:12.901Z,-13.86
2022-12-16T11:36:06.773Z,-13.69
2022-12-16T11:39:01.696Z,-13.56
2022-12-16T11:41:53.043Z,-13.56
2022-12-16T11:44:48.586Z,-13.58
2022-12-16T11:47:42.094Z,-13.70
2022-12-16T11:50:33.266Z,-13.54
2022-12-16T11:53:19.983Z,-13.54
2022-12-16T11:56:15.746Z,-14.14
2022-12-16T11:59:09.540Z,-13.62
2022-12-16T12:02:21.668Z,-13.58
2022-12-16T12:05:09.036Z,-13.77
2022-12-16T12:08:03.322Z,-13.46
2022-12-16T12:11:07.589Z,-13.44
2022-12-16T12:14:09.523Z,-13.44
2022-12-16T12:17:16.920Z,-13.42
2022-12-16T12:20:16.734Z,-13.39
2022-12-16T12:23:02.670Z,-13.44
2022-12-16T12:25:54.740Z,-13.47
2022-12-16T12:28:46.408Z,-13.47
2022-12-16T12:31:51.853Z,-13.54
2022-12-16T12:34:49.257Z,-13.60
2022-12-16T12:37:48.067Z,-13.67
2022-12-16T12:40:55.743Z,-13.69
2022-12-16T12:43:44.254Z,-13.68
2022-12-16T12:46:40.136Z,-13.71
2022-12-16T12:49:59.955Z,-13.64
2022-12-16T12:53:07.492Z,-13.62
2022-12-16T12:56:12.231Z,-13.61
2022-12-16T12:58:59.021Z,-13.59
2022-12-16T13:01:50.279Z,-13.74
2022-12-16T13:04:40.200Z,-13.59
2022-12-16T13:07:26.718Z,-13.57
2022-12-16T13:10:33.009Z,-13.97
2022-12-16T13:13:34.415Z,-13.57
2022-12-16T13:16:29.750Z,-13.57
2022-12-16T13:19:50.416Z,-13.56
2022-12-16T13:22:56.221Z,-13.71
2022-12-16T13:26:22.693Z,-13.58
2022-12-16T13:29:34.754Z,-13.71
2022-12-16T13:32:22.934Z,-13.59
2022-12-16T13:35:35.410Z,-13.61
2022-12-16T13:38:23.859Z,-13.61
2022-12-16T13:41:18.998Z,-13.74
2022-12-16T13:44:11.792Z,-13.61
2022-12-16T13:47:03.836Z,-13.71
2022-12-16T13:49:55.080Z,-13.61
2022-12-16T13:53:10.852Z,-13.75
2022-12-16T13:56:11.038Z,-13.87
2022-12-16T13:59:04.776Z,-13.64
2022-12-16T14:02:15.898Z,-13.80
2022-12-16T14:05:11.679Z,-13.66
2022-12-16T14:07:59.369Z,-13.65
2022-12-16T14:10:55.221Z,-13.66
2022-12-16T14:14:01.864Z,-14.42
2022-12-16T14:17:12.719Z,-13.65
2022-12-16T14:20:18.099Z,-13.66
2022-12-16T14:23:55.719Z,-13.66
2022-12-16T14:26:38.662Z,-13.66
2022-12-16T14:29:43.518Z,-13.67
2022-12-16T14:32:49.373Z,-13.67
2022-12-16T14:35:36.711Z,-13.67
2022-12-16T14:38:44.007Z,-13.67
2022-12-16T14:41:34.633Z,-13.68
2022-12-16T14:44:22.170Z,-14.01
2022-12-16T14:47:09.794Z,-13.67
2022-12-16T14:50:06.943Z,-13.68
2022-12-16T14:52:52.596Z,-13.67
2022-12-16T14:55:49.955Z,-13.67
2022-12-16T14:58:38.534Z,-13.69
2022-12-16T15:01:34.086Z,-14.22
2022-12-16T15:04:23.636Z,-13.69
2022-12-16T15:07:13.343Z,-13.77
2022-12-16T15:10:02.991Z,-13.75
2022-12-16T15:12:55.391Z,-13.67
2022-12-16T15:15:47.448Z,-13.66
2022-12-16T15:18:43.444Z,-13.83
2022-12-16T15:21:29.227Z,-13.73
2022-12-16T15:24:15.141Z,-13.69
2022-12-16T15:27:03.760Z,-14.62
2022-12-16T15:29:53.778Z,-13.71
2022-12-16T15:32:53.654Z,-13.73
2022-12-16T15:35:52.814Z,-13.70
2022-12-16T15:38:50.386Z,-13.72
2022-12-16T15:41:38.996Z,-14.32
2022-12-16T15:44:32.073Z,-13.73
2022-12-16T15:47:17.608Z,-13.73
2022-12-16T15:50:06.118Z,-13.78
2022-12-16T15:52:56.926Z,-13.73
2022-12-16T15:55:57.046Z,-13.74
2022-12-16T15:58:49.599Z,-13.74
2022-12-16T16:01:39.207Z,-13.75
2022-12-16T16:04:47.909Z,-13.77
2022-12-16T16:07:41.379Z,-13.77
2022-12-16T16:10:36.882Z,-13.80
2022-12-16T16:13:22.936Z,-14.19
2022-12-16T16:16:08.970Z,-13.82
2022-12-16T16:18:54.355Z,-15.04
2022-12-16T16:21:40.890Z,-13.88
2022-12-16T16:24:26.492Z,-13.92
2022-12-16T16:27:18.186Z,-13.94
2022-12-16T16:30:04.177Z,-13.96
2022-12-16T16:32:49.925Z,-13.97
2022-12-16T16:35:35.323Z,-13.98
2022-12-16T16:38:21.278Z,-13.99
2022-12-16T16:41:06.805Z,-13.98
2022-12-16T16:43:52.331Z,-13.99
2022-12-16T16:46:57.057Z,-14.00
2022-12-16T16:49:49.998Z,-14.01
2022-12-16T16:52:38.158Z,-14.02
2022-12-16T16:55:25.267Z,-14.03
2022-12-16T16:58:10.824Z,-14.56
2022-12-16T17:00:56.388Z,-14.06
2022-12-16T17:03:42.737Z,-14.07
2022-12-16T17:06:28.668Z,-14.09
2022-12-16T17:09:14.131Z,-14.10
2022-12-16T17:12:00.142Z,-14.09
2022-12-16T17:14:45.700Z,-14.13
2022-12-16T17:17:31.633Z,-14.14
2022-12-16T17:20:16.809Z,-14.15
2022-12-16T17:23:02.530Z,-14.17
2022-12-16T17:25:48.152Z,-14.19
2022-12-16T17:28:34.127Z,-14.20
2022-12-16T17:31:19.850Z,-14.26
2022-12-16T17:34:05.591Z,-14.19
2022-12-16T17:36:50.799Z,-14.17
2022-12-16T17:39:56.575Z,-14.19
2022-12-16T17:42:46.441Z,-14.17
2022-12-16T17:45:32.505Z,-14.10
2022-12-16T17:48:18.194Z,-14.42
2022-12-16T17:51:04.041Z,-14.09
2022-12-16T17:53:54.554Z,-14.09
2022-12-16T17:56:42.634Z,-14.09
2022-12-16T17:59:28.342Z,-14.08
2022-12-16T18:02:13.980Z,-14.19
2022-12-16T18:04:59.379Z,-14.11
2022-12-16T18:07:44.907Z,-14.11
2022-12-16T18:10:30.621Z,-14.29
2022-12-16T18:13:16.414Z,-14.14
2022-12-16T18:16:01.588Z,-14.24
2022-12-16T18:18:48.980Z,-14.15
2022-12-16T18:21:34.691Z,-14.20
2022-12-16T18:24:25.580Z,-14.42
2022-12-16T18:27:11.607Z,-14.22
2022-12-16T18:29:57.566Z,-14.25
2022-12-16T18:32:43.021Z,-14.72
2022-12-16T18:35:28.892Z,-14.29
2022-12-16T18:38:16.751Z,-14.31
2022-12-16T18:41:02.588Z,-14.61
2022-12-16T18:43:48.496Z,-14.50
2022-12-16T18:46:34.475Z,-14.40
2022-12-16T18:49:19.590Z,-14.47
2022-12-16T18:52:05.281Z,-14.44
2022-12-16T18:54:50.791Z,-14.47
2022-12-16T18:57:39.622Z,-14.49
2022-12-16T19:00:26.203Z,-14.79
2022-12-16T19:03:12.253Z,-14.60
2022-12-16T19:05:57.758Z,-14.63
2022-12-16T19:08:43.624Z,-14.61
2022-12-16T19:11:28.792Z,-14.64
2022-12-16T19:14:15.124Z,-14.66
2022-12-16T19:17:00.427Z,-14.68
2022-12-16T19:19:45.947Z,-14.71
2022-12-16T19:22:31.644Z,-14.74
2022-12-16T19:25:17.511Z,-14.77
2022-12-16T19:28:06.030Z,-14.78
2022-12-16T19:30:51.768Z,-14.81
2022-12-16T19:33:37.211Z,-15.03
2022-12-16T19:36:22.770Z,-14.85
2022-12-16T19:39:08.382Z,-14.92
2022-12-16T19:41:55.186Z,-15.19
2022-12-16T19:44:42.160Z,-14.92
2022-12-16T19:47:27.622Z,-14.93
2022-12-16T19:50:13.243Z,-14.99
2022-12-16T19:52:58.949Z,-14.98
2022-12-16T19:55:44.673Z,-15.81
2022-12-16T19:58:30.214Z,-15.17
2022-12-16T20:01:15.599Z,-15.20
2022-12-16T20:04:01.286Z,-15.06
2022-12-16T20:06:46.961Z,-15.08
2022-12-16T20:09:33.092Z,-15.10
2022-12-16T20:12:18.952Z,-15.48
2022-12-16T20:15:04.932Z,-15.58
2022-12-16T20:17:50.336Z,-15.16
2022-12-16T20:20:35.884Z,-15.17
2022-12-16T20:23:21.570Z,-15.32
2022-12-16T20:26:15.151Z,-15.40
2022-12-16T20:29:01.381Z,-15.75
2022-12-16T20:31:47.929Z,-15.60
2022-12-16T20:34:34.176Z,-15.59
2022-12-16T20:37:19.703Z,-15.39
2022-12-16T20:40:05.869Z,-15.35
2022-12-16T20:42:51.517Z,-15.35
2022-12-16T20:45:39.032Z,-15.86
2022-12-16T20:48:25.542Z,-15.37
2022-12-16T20:51:19.706Z,-15.38
2022-12-16T20:54:12.178Z,-15.38
2022-12-16T20:56:57.931Z,-15.87
2022-12-16T20:59:43.617Z,-15.50
2022-12-16T21:02:36.010Z,-15.42
2022-12-16T21:05:22.014Z,-15.44
2022-12-16T21:08:07.666Z,-15.48
2022-12-16T21:10:56.239Z,-15.47
2022-12-16T21:14:02.195Z,-15.52
2022-12-16T21:16:47.611Z,-15.51
2022-12-16T21:19:35.934Z,-15.53
2022-12-16T21:22:21.739Z,-15.54
2022-12-16T21:25:07.391Z,-15.55
2022-12-16T21:27:54.129Z,-15.55
2022-12-16T21:30:41.031Z,-15.62
2022-12-16T21:33:34.639Z,-15.57
2022-12-16T21:36:20.356Z,-15.59
2022-12-16T21:39:06.047Z,-15.61
2022-12-16T21:41:51.812Z,-15.61
2022-12-16T21:44:37.567Z,-15.61
2022-12-16T21:47:23.054Z,-15.62
2022-12-16T21:50:09.177Z,-15.84
2022-12-16T21:52:55.071Z,-16.19
2022-12-16T21:55:42.192Z,-15.64
2022-12-16T21:58:31.308Z,-15.94
2022-12-16T22:01:18.068Z,-15.65
2022-12-16T22:04:04.367Z,-15.98
2022-12-16T22:06:52.227Z,-15.76
2022-12-16T22:09:39.555Z,-15.74
2022-12-16T22:12:25.041Z,-15.70
2022-12-16T22:15:10.531Z,-15.72
2022-12-16T22:21:02.048Z,-16.04
2022-12-16T22:23:48.839Z,-15.78
2022-12-16T22:26:34.283Z,-15.80
2022-12-16T22:29:20.183Z,-15.80
2022-12-16T22:32:05.362Z,-15.82
2022-12-16T22:34:50.768Z,-15.85
2022-12-16T22:37:36.391Z,-15.84
2022-12-16T22:40:22.247Z,-15.86
2022-12-16T22:43:07.663Z,-15.88
2022-12-16T22:45:53.539Z,-15.89
2022-12-16T22:48:41.944Z,-15.89
2022-12-16T22:51:35.567Z,-15.91
2022-12-16T22:54:21.066Z,-15.93
2022-12-16T22:57:06.764Z,-15.93
2022-12-16T22:59:52.205Z,-16.43
2022-12-16T23:02:40.918Z,-16.05
2022-12-16T23:05:27.965Z,-16.26
2022-12-16T23:08:18.923Z,-16.03
2022-12-16T23:11:12.915Z,-16.33
2022-12-16T23:13:58.595Z,-16.01
2022-12-16T23:16:44.174Z,-16.02
2022-12-16T23:19:29.700Z,-16.69
2022-12-16T23:22:15.415Z,-16.04
2022-12-16T23:25:01.211Z,-16.05
2022-12-16T23:27:46.932Z,-16.06
2022-12-16T23:30:32.896Z,-16.08
2022-12-16T23:33:21.526Z,-16.08
2022-12-16T23:36:07.299Z,-16.17
2022-12-16T23:38:53.360Z,-16.15
2022-12-16T23:41:39.014Z,-16.12
2022-12-16T23:44:24.393Z,-16.14
2022-12-16T23:47:09.924Z,-16.20
2022-12-16T23:49:56.555Z,-17.05
2022-12-16T23:52:42.359Z,-16.18
2022-12-16T23:55:28.354Z,-16.19
2022-12-16T23:58:18.524Z,-16.48
